Time;durP1;ratioP1;P1;durP2;ratioP2;P2;SDS_P1;SDS_P2;PMS_P1;PMS_P2;Temp;Humidity;BMP_temperature;BMP_pressure;BME280_temperature;BME280_humidity;BME280_pressure;Samples;Min_cycle;Max_cycle;Signal;HPM_P1;HPM_P2
2023/10/06 00:01:49;;;;;;;10.07;4.97;;;16.10;76.50;;;;;;5038955;28;20092;-69
2023/10/06 00:04:16;;;;;;;8.45;4.32;;;16.10;76.50;;;;;;5052090;28;20028;-70
2023/10/06 00:06:43;;;;;;;12.73;4.95;;;16.00;76.50;;;;;;5042966;28;20033;-70
2023/10/06 00:09:20;;;;;;;10.55;4.70;;;16.00;76.50;;;;;;5065545;28;20040;-69
2023/10/06 00:11:46;;;;;;;10.13;4.53;;;16.00;76.60;;;;;;5032067;28;20370;-69
2023/10/06 00:14:57;;;;;;;9.50;4.57;;;15.90;76.60;;;;;;5032217;28;20030;-69
2023/10/06 00:16:59;;;;;;;12.20;4.55;;;15.90;76.70;;;;;;5036720;28;20032;-69
2023/10/06 00:19:32;;;;;;;10.88;4.07;;;15.90;76.70;;;;;;5026296;28;20040;-69
2023/10/06 00:24:43;;;;;;;10.05;4.80;;;15.90;76.80;;;;;;5030947;28;20124;-69
2023/10/06 00:27:11;;;;;;;9.55;4.30;;;15.90;76.80;;;;;;5048667;28;20033;-69
2023/10/06 00:29:47;;;;;;;10.38;5.10;;;15.90;76.90;;;;;;5056141;28;20032;-69
2023/10/06 00:32:23;;;;;;;8.30;4.10;;;15.90;76.90;;;;;;5035225;28;20025;-69
2023/10/06 00:34:50;;;;;;;10.10;4.47;;;15.90;77.00;;;;;;5044763;28;20022;-69
2023/10/06 00:37:16;;;;;;;10.38;5.00;;;15.80;77.00;;;;;;5036517;28;20336;-69
2023/10/06 00:39:43;;;;;;;10.40;4.78;;;15.90;77.00;;;;;;5061145;28;20095;-70
2023/10/06 00:42:14;;;;;;;11.80;5.43;;;15.90;77.00;;;;;;5046940;28;20036;-69
2023/10/06 00:44:40;;;;;;;12.33;5.00;;;15.90;77.10;;;;;;5047482;28;20044;-69
2023/10/06 00:47:10;;;;;;;9.45;4.72;;;15.90;77.10;;;;;;5040177;28;20695;-69
2023/10/06 00:49:37;;;;;;;11.32;4.68;;;15.80;77.10;;;;;;5047507;28;20086;-69
2023/10/06 00:52:06;;;;;;;9.20;4.93;;;15.90;77.20;;;;;;5037178;28;20026;-70
2023/10/06 00:54:33;;;;;;;9.75;4.45;;;15.80;77.10;;;;;;5038428;28;20029;-69
2023/10/06 00:57:08;;;;;;;10.43;4.65;;;15.90;77.20;;;;;;5049814;28;20091;-69
2023/10/06 00:59:37;;;;;;;11.30;4.97;;;15.80;77.20;;;;;;5024596;28;20354;-69
2023/10/06 01:02:10;;;;;;;9.98;4.90;;;15.80;77.20;;;;;;5035661;28;20443;-69
2023/10/06 01:04:45;;;;;;;10.73;5.15;;;15.80;77.20;;;;;;5042281;28;20098;-69
2023/10/06 01:07:16;;;;;;;9.75;5.05;;;15.90;77.40;;;;;;5039313;28;20034;-69
2023/10/06 01:10:06;;;;;;;10.55;4.47;;;15.80;77.30;;;;;;5039985;28;20055;-69
2023/10/06 01:12:32;;;;;;;9.85;4.72;;;15.90;77.40;;;;;;5052284;28;20030;-69
2023/10/06 01:17:57;;;;;;;15.40;5.40;;;15.80;77.50;;;;;;5050475;28;20462;-69
2023/10/06 01:20:55;;;;;;;9.25;4.45;;;15.80;77.60;;;;;;5022649;28;20042;-69
2023/10/06 01:23:27;;;;;;;11.20;5.38;;;15.80;77.60;;;;;;5048407;28;20473;-69
2023/10/06 01:25:54;;;;;;;11.23;5.22;;;15.80;77.60;;;;;;5038334;28;20125;-70
2023/10/06 01:28:23;;;;;;;14.68;4.80;;;15.80;78.30;;;;;;5048494;28;20055;-69
2023/10/06 01:30:53;;;;;;;8.43;4.63;;;15.70;77.70;;;;;;5050903;28;20056;-69
2023/10/06 01:33:18;;;;;;;10.43;4.95;;;15.70;77.70;;;;;;5048781;28;20039;-69
2023/10/06 01:35:47;;;;;;;10.15;5.13;;;15.70;77.70;;;;;;5041178;28;20025;-70
2023/10/06 01:38:22;;;;;;;14.00;5.45;;;15.70;77.70;;;;;;5048265;28;20032;-69
2023/10/06 01:40:52;;;;;;;10.70;5.03;;;15.80;77.80;;;;;;5040974;28;20027;-69
2023/10/06 01:43:22;;;;;;;11.05;4.80;;;15.70;77.80;;;;;;5035372;28;20045;-69
2023/10/06 01:45:51;;;;;;;10.25;4.63;;;15.70;77.80;;;;;;5054821;28;20442;-70
2023/10/06 01:50:48;;;;;;;11.00;5.30;;;15.70;77.80;;;;;;5045127;28;20147;-69
2023/10/06 01:53:21;;;;;;;10.98;5.93;;;15.70;77.70;;;;;;5042354;28;20366;-69
2023/10/06 01:55:49;;;;;;;10.30;5.10;;;15.70;77.80;;;;;;5038183;28;20019;-69
2023/10/06 01:58:15;;;;;;;10.75;4.93;;;15.70;77.80;;;;;;5044703;28;20052;-69
2023/10/06 02:00:44;;;;;;;10.18;5.35;;;15.70;77.90;;;;;;5042201;28;20032;-69
2023/10/06 02:03:11;;;;;;;9.98;4.53;;;15.70;77.90;;;;;;5035166;28;20104;-69
2023/10/06 02:05:40;;;;;;;8.98;4.63;;;15.70;77.80;;;;;;5035026;28;20030;-69
2023/10/06 02:08:06;;;;;;;12.35;5.25;;;15.70;77.90;;;;;;5035694;28;20021;-69
2023/10/06 02:10:32;;;;;;;9.65;5.20;;;15.70;77.90;;;;;;5028822;28;20030;-69
2023/10/06 02:12:58;;;;;;;11.75;4.63;;;15.70;77.90;;;;;;5037483;28;20028;-69
2023/10/06 02:15:27;;;;;;;10.00;5.10;;;15.70;77.90;;;;;;5062664;28;20354;-69
2023/10/06 02:17:53;;;;;;;9.52;5.50;;;15.70;77.90;;;;;;5036438;28;20033;-69
2023/10/06 02:22:52;;;;;;;10.98;5.35;;;15.70;77.90;;;;;;5046850;28;20385;-69
2023/10/06 02:25:20;;;;;;;11.32;5.38;;;15.70;77.90;;;;;;5037119;28;20466;-69
2023/10/06 02:27:47;;;;;;;10.38;4.18;;;15.70;77.90;;;;;;5052714;28;20033;-69
2023/10/06 02:30:15;;;;;;;9.45;4.35;;;15.70;78.50;;;;;;5046980;28;20047;-69
2023/10/06 02:32:45;;;;;;;8.93;4.38;;;15.70;77.90;;;;;;5036290;28;20100;-69
2023/10/06 02:35:17;;;;;;;11.02;5.22;;;15.70;77.90;;;;;;5033014;28;20335;-69
2023/10/06 02:37:46;;;;;;;10.00;4.85;;;15.70;77.90;;;;;;5025659;28;20029;-69
2023/10/06 02:40:12;;;;;;;11.02;4.82;;;15.70;77.90;;;;;;5040582;28;20017;-69
2023/10/06 02:43:16;;;;;;;11.02;4.88;;;15.60;77.90;;;;;;5035000;28;20035;-69
2023/10/06 02:45:40;;;;;;;9.95;4.43;;;15.60;78.10;;;;;;5045393;28;20123;-69
2023/10/06 02:48:14;;;;;;;12.00;4.10;;;15.60;78.10;;;;;;5034898;28;20163;-69
2023/10/06 02:50:49;;;;;;;8.80;4.25;;;15.60;78.10;;;;;;5034761;28;20339;-69
2023/10/06 02:53:20;;;;;;;10.55;4.65;;;15.60;78.20;;;;;;5048549;28;20033;-69
2023/10/06 02:55:55;;;;;;;11.38;5.00;;;15.60;78.30;;;;;;5030667;28;20018;-69
2023/10/06 02:58:30;;;;;;;11.55;4.80;;;15.60;78.30;;;;;;5024305;28;20083;-69
2023/10/06 03:00:56;;;;;;;10.80;4.82;;;15.60;78.40;;;;;;5032640;28;20060;-69
2023/10/06 03:03:26;;;;;;;9.27;4.45;;;15.60;78.30;;;;;;5040440;28;20026;-69
2023/10/06 03:05:56;;;;;;;11.38;4.45;;;15.60;78.30;;;;;;5018960;28;20029;-69
2023/10/06 03:08:27;;;;;;;8.38;4.22;;;15.60;78.30;;;;;;5032975;28;20041;-69
2023/10/06 03:10:53;;;;;;;10.52;4.07;;;15.50;78.30;;;;;;5032420;28;20025;-69
2023/10/06 03:13:32;;;;;;;11.10;4.95;;;15.60;78.30;;;;;;5033513;28;20033;-69
2023/10/06 03:16:00;;;;;;;9.98;4.60;;;15.50;78.30;;;;;;5047041;28;20021;-69
2023/10/06 03:18:26;;;;;;;9.98;4.43;;;15.50;78.40;;;;;;5033651;28;20115;-69
2023/10/06 03:21:05;;;;;;;9.80;4.28;;;15.50;78.40;;;;;;5040043;28;20029;-69
2023/10/06 03:23:38;;;;;;;9.73;4.28;;;15.50;78.40;;;;;;5033088;28;20030;-69
2023/10/06 03:26:12;;;;;;;12.65;4.35;;;15.60;78.40;;;;;;5031871;28;20056;-69
2023/10/06 03:28:42;;;;;;;9.73;4.60;;;15.60;78.40;;;;;;5034078;28;20049;-69
2023/10/06 03:31:44;;;;;;;9.60;4.50;;;15.50;78.40;;;;;;5049023;28;20068;-69
2023/10/06 03:33:55;;;;;;;8.85;3.90;;;15.50;78.40;;;;;;5048859;28;20477;-69
2023/10/06 03:37:34;;;;;;;10.02;4.43;;;15.50;78.40;;;;;;5018457;28;20033;-69
2023/10/06 03:39:22;;;;;;;8.07;4.05;;;15.50;78.40;;;;;;5035023;28;20045;-69
2023/10/06 03:41:52;;;;;;;10.25;3.97;;;15.50;78.40;;;;;;5024391;28;20083;-69
2023/10/06 03:44:29;;;;;;;10.32;4.68;;;15.50;78.40;;;;;;5031336;28;20037;-69
2023/10/06 03:47:00;;;;;;;7.90;4.40;;;15.50;78.40;;;;;;5022381;28;20051;-69
2023/10/06 03:49:27;;;;;;;9.80;4.63;;;15.50;78.40;;;;;;5047912;28;20048;-69
2023/10/06 03:51:56;;;;;;;9.13;4.63;;;15.50;78.50;;;;;;5037538;28;20283;-69
2023/10/06 03:54:23;;;;;;;11.75;4.47;;;15.50;78.40;;;;;;5032970;28;20022;-69
2023/10/06 03:56:49;;;;;;;8.30;4.05;;;15.50;78.40;;;;;;5046220;28;20025;-69
2023/10/06 03:59:16;;;;;;;9.32;4.38;;;15.50;78.40;;;;;;5048477;28;20485;-69
2023/10/06 04:01:45;;;;;;;10.40;4.43;;;15.50;78.40;;;;;;5033768;28;20057;-69
2023/10/06 04:04:15;;;;;;;10.40;4.10;;;15.50;78.40;;;;;;5010210;28;20048;-69
2023/10/06 04:06:41;;;;;;;9.32;3.92;;;15.50;78.40;;;;;;5041552;28;20034;-69
2023/10/06 04:09:08;;;;;;;9.38;4.30;;;15.50;78.30;;;;;;5032826;28;20469;-69
2023/10/06 04:11:34;;;;;;;12.13;4.70;;;15.50;78.40;;;;;;5036183;28;20034;-69
2023/10/06 04:14:01;;;;;;;10.07;4.38;;;15.50;78.40;;;;;;5036156;28;20044;-69
2023/10/06 04:16:26;;;;;;;8.23;4.05;;;15.50;78.40;;;;;;5053482;28;20459;-69
2023/10/06 04:18:52;;;;;;;8.23;4.10;;;15.50;78.40;;;;;;5034889;28;20025;-69
2023/10/06 04:21:20;;;;;;;10.55;4.18;;;15.50;78.40;;;;;;5036467;28;20111;-69
2023/10/06 04:23:45;;;;;;;13.07;4.15;;;15.50;78.40;;;;;;5046816;28;20060;-69
2023/10/06 04:26:14;;;;;;;12.23;4.05;;;15.50;78.40;;;;;;5037226;28;20508;-69
2023/10/06 04:28:45;;;;;;;12.35;4.85;;;15.50;78.40;;;;;;5036331;28;20021;-69
2023/10/06 04:31:11;;;;;;;11.27;4.85;;;15.50;78.50;;;;;;5037456;28;20017;-69
2023/10/06 04:33:37;;;;;;;8.93;4.50;;;15.40;78.50;;;;;;5034528;28;20057;-69
2023/10/06 04:36:10;;;;;;;12.10;4.68;;;15.40;78.50;;;;;;5035495;28;20036;-70
2023/10/06 04:38:40;;;;;;;11.23;4.75;;;15.40;78.60;;;;;;5034478;28;20029;-69
2023/10/06 04:41:09;;;;;;;10.68;4.60;;;15.40;78.70;;;;;;5041485;28;20378;-69
2023/10/06 04:43:36;;;;;;;11.40;4.60;;;15.40;78.70;;;;;;5034185;28;20044;-69
2023/10/06 04:46:05;;;;;;;10.50;3.85;;;15.40;78.60;;;;;;5035642;28;20045;-69
2023/10/06 04:48:32;;;;;;;9.43;4.35;;;15.40;78.70;;;;;;5035417;28;20044;-70
2023/10/06 04:50:57;;;;;;;9.32;4.05;;;15.40;78.60;;;;;;5034710;28;20028;-70
2023/10/06 04:53:23;;;;;;;9.75;4.25;;;15.40;78.50;;;;;;5032367;28;20033;-70
2023/10/06 04:55:51;;;;;;;8.60;4.03;;;15.40;78.50;;;;;;5030186;28;20029;-70
2023/10/06 04:58:18;;;;;;;8.95;4.35;;;15.40;78.40;;;;;;5029223;28;20025;-71
2023/10/06 05:00:53;;;;;;;9.82;4.60;;;15.40;78.40;;;;;;5030598;28;20040;-72
2023/10/06 05:03:19;;;;;;;10.85;4.22;;;15.40;78.50;;;;;;5030055;28;20036;-71
2023/10/06 05:05:45;;;;;;;11.05;4.53;;;15.40;78.40;;;;;;5011884;28;20013;-71
2023/10/06 05:08:14;;;;;;;9.35;4.05;;;15.40;78.30;;;;;;5046101;28;20017;-72
2023/10/06 05:10:40;;;;;;;9.75;4.00;;;15.40;78.30;;;;;;5032800;28;20029;-72
2023/10/06 05:13:07;;;;;;;8.73;4.88;;;15.40;78.30;;;;;;5028580;28;20029;-71
2023/10/06 05:15:34;;;;;;;9.00;4.82;;;15.40;78.20;;;;;;5034884;28;20040;-72
2023/10/06 05:18:04;;;;;;;11.45;4.57;;;15.40;78.20;;;;;;5032704;28;20022;-72
2023/10/06 05:20:35;;;;;;;10.93;4.50;;;15.40;78.10;;;;;;5031290;28;20033;-72
2023/10/06 05:23:06;;;;;;;11.18;4.43;;;15.40;78.10;;;;;;5046935;28;20111;-72
2023/10/06 05:25:34;;;;;;;11.25;4.47;;;15.40;78.10;;;;;;5030986;28;20041;-72
2023/10/06 05:28:00;;;;;;;10.15;4.70;;;15.40;78.00;;;;;;5031822;28;20017;-72
2023/10/06 05:30:27;;;;;;;10.25;4.47;;;15.40;77.90;;;;;;5044044;28;20036;-71
2023/10/06 05:32:57;;;;;;;10.23;4.90;;;15.40;77.80;;;;;;5032659;28;20084;-72
2023/10/06 05:35:25;;;;;;;9.77;4.60;;;15.40;77.70;;;;;;5030355;28;20033;-71
2023/10/06 05:37:51;;;;;;;10.23;4.45;;;15.40;77.70;;;;;;5032718;28;20033;-71
2023/10/06 05:40:20;;;;;;;9.35;4.43;;;15.40;77.60;;;;;;5045861;28;20087;-71
2023/10/06 05:42:49;;;;;;;9.07;4.53;;;15.40;77.60;;;;;;5031175;28;20466;-71
2023/10/06 05:45:19;;;;;;;11.52;4.57;;;15.40;77.50;;;;;;5032692;28;20477;-71
2023/10/06 05:47:51;;;;;;;9.00;5.20;;;15.40;77.50;;;;;;5028788;28;20526;-71
2023/10/06 05:50:29;;;;;;;10.90;5.82;;;15.40;77.40;;;;;;5032054;28;20108;-71
2023/10/06 05:53:02;;;;;;;10.57;5.88;;;15.40;77.30;;;;;;5028398;28;20022;-72
2023/10/06 05:55:29;;;;;;;13.30;6.53;;;15.40;77.20;;;;;;5029702;28;20125;-71
2023/10/06 05:57:55;;;;;;;16.05;7.50;;;15.40;77.80;;;;;;5030854;28;20465;-72
2023/10/06 06:00:26;;;;;;;11.55;7.03;;;15.40;77.00;;;;;;5031199;28;20018;-72
2023/10/06 06:03:06;;;;;;;10.63;6.47;;;15.40;76.90;;;;;;5043750;28;20113;-71
2023/10/06 06:05:33;;;;;;;13.02;6.40;;;15.40;76.90;;;;;;5014855;28;20106;-71
2023/10/06 06:08:00;;;;;;;11.23;6.28;;;15.40;76.80;;;;;;5014036;28;20377;-68
2023/10/06 06:10:29;;;;;;;11.50;6.35;;;15.50;76.70;;;;;;5029721;28;20045;-69
2023/10/06 06:13:00;;;;;;;10.93;6.13;;;15.40;76.60;;;;;;5030864;28;20021;-70
2023/10/06 06:15:26;;;;;;;12.45;5.55;;;15.50;76.60;;;;;;5027597;28;20021;-70
2023/10/06 06:17:58;;;;;;;9.57;5.55;;;15.50;76.60;;;;;;5027311;28;20056;-71
2023/10/06 06:20:24;;;;;;;10.13;5.10;;;15.50;76.40;;;;;;5028367;28;20083;-71
2023/10/06 06:22:53;;;;;;;12.85;4.72;;;15.50;76.30;;;;;;5042833;28;20044;-73
2023/10/06 06:25:21;;;;;;;10.25;4.63;;;15.50;76.30;;;;;;5030233;28;20044;-71
2023/10/06 06:27:54;;;;;;;10.45;4.65;;;15.50;76.20;;;;;;5042591;28;20041;-70
2023/10/06 06:30:24;;;;;;;8.75;4.22;;;15.60;76.00;;;;;;5028644;28;20051;-67
2023/10/06 06:32:52;;;;;;;8.93;4.15;;;15.60;76.00;;;;;;5040293;28;20099;-67
2023/10/06 06:35:22;;;;;;;8.80;3.67;;;15.60;75.90;;;;;;5028082;28;20454;-67
2023/10/06 06:37:59;;;;;;;9.25;3.95;;;15.60;76.40;;;;;;5019861;28;20626;-67
2023/10/06 06:40:26;;;;;;;11.38;4.15;;;15.70;75.60;;;;;;5023607;28;20029;-68
2023/10/06 06:42:52;;;;;;;11.30;4.35;;;15.70;75.60;;;;;;5028081;28;20029;-68
2023/10/06 06:45:19;;;;;;;10.98;4.05;;;15.70;75.50;;;;;;5043421;28;20034;-68
2023/10/06 06:47:46;;;;;;;11.00;4.20;;;15.70;75.40;;;;;;5029403;28;20033;-68
2023/10/06 06:50:13;;;;;;;10.57;4.13;;;15.70;75.30;;;;;;5030108;28;20312;-68
2023/10/06 06:52:42;;;;;;;12.02;4.53;;;15.80;75.40;;;;;;5030089;28;20477;-68
2023/10/06 06:55:15;;;;;;;9.40;4.57;;;15.80;75.30;;;;;;5043096;28;20120;-68
2023/10/06 06:57:49;;;;;;;10.20;4.10;;;15.80;75.10;;;;;;5028711;28;20030;-68
2023/10/06 07:00:21;;;;;;;10.52;4.63;;;15.70;75.10;;;;;;5027274;28;20044;-68
2023/10/06 07:02:52;;;;;;;10.98;2.97;;;15.70;75.10;;;;;;5021754;28;20045;-68
2023/10/06 07:05:20;;;;;;;9.93;3.10;;;15.70;75.20;;;;;;5028798;28;20025;-68
2023/10/06 07:07:50;;;;;;;10.02;3.78;;;15.70;75.10;;;;;;5043708;28;20454;-69
2023/10/06 07:10:22;;;;;;;9.38;3.85;;;15.80;75.10;;;;;;5044361;28;20033;-68
2023/10/06 07:12:51;;;;;;;9.68;3.85;;;15.80;74.90;;;;;;5028219;28;20385;-69
2023/10/06 07:15:19;;;;;;;9.55;3.58;;;15.80;75.00;;;;;;5042801;28;20029;-69
2023/10/06 07:17:49;;;;;;;9.65;3.95;;;15.80;75.00;;;;;;5029460;28;20037;-68
2023/10/06 07:20:19;;;;;;;10.18;3.42;;;15.80;75.00;;;;;;5010264;28;20068;-69
2023/10/06 07:22:46;;;;;;;7.93;3.78;;;15.80;75.00;;;;;;5030153;28;20022;-68
2023/10/06 07:25:15;;;;;;;9.40;3.83;;;15.80;75.10;;;;;;5028535;28;20037;-68
2023/10/06 07:27:43;;;;;;;7.47;3.75;;;15.80;75.10;;;;;;5028774;28;20439;-68
2023/10/06 07:30:10;;;;;;;9.75;4.00;;;15.80;75.10;;;;;;5028170;28;20091;-67
2023/10/06 07:32:41;;;;;;;9.95;3.88;;;15.80;75.10;;;;;;5042788;28;20316;-68
2023/10/06 07:35:15;;;;;;;10.43;3.80;;;15.90;75.00;;;;;;5028937;28;20021;-66
2023/10/06 07:37:43;;;;;;;7.80;3.60;;;15.90;74.80;;;;;;5028105;28;20014;-68
2023/10/06 07:40:13;;;;;;;10.20;3.60;;;16.00;74.90;;;;;;5027841;28;20048;-70
2023/10/06 07:42:41;;;;;;;9.60;3.83;;;16.00;74.70;;;;;;5030657;28;20091;-68
2023/10/06 07:45:08;;;;;;;8.75;3.67;;;16.10;74.60;;;;;;5033794;28;20450;-67
2023/10/06 07:47:36;;;;;;;10.68;3.67;;;16.20;74.50;;;;;;5049716;28;20040;-67
2023/10/06 07:50:02;;;;;;;9.52;3.88;;;16.20;74.30;;;;;;5029445;28;20029;-68
2023/10/06 07:52:28;;;;;;;9.23;3.40;;;16.30;74.10;;;;;;5033424;28;20025;-68
2023/10/06 07:54:53;;;;;;;9.57;4.00;;;16.40;74.00;;;;;;5034369;28;20080;-68
2023/10/06 07:57:19;;;;;;;9.95;3.85;;;16.50;73.90;;;;;;5034105;28;20462;-68
2023/10/06 07:59:46;;;;;;;12.23;3.85;;;16.50;73.70;;;;;;5033677;28;20044;-68
2023/10/06 08:02:13;;;;;;;8.52;3.60;;;16.70;73.50;;;;;;5033638;28;20041;-68
2023/10/06 08:04:39;;;;;;;9.05;3.72;;;16.80;73.30;;;;;;5016726;28;20033;-68
2023/10/06 08:07:05;;;;;;;10.07;4.00;;;16.80;73.00;;;;;;5034537;28;20034;-68
2023/10/06 08:09:34;;;;;;;13.38;3.42;;;17.00;72.90;;;;;;5032667;28;20155;-68
2023/10/06 08:12:00;;;;;;;9.80;3.92;;;17.00;72.70;;;;;;5033594;28;20434;-68
2023/10/06 08:14:28;;;;;;;9.18;3.75;;;17.20;72.60;;;;;;5034557;28;20021;-68
2023/10/06 08:16:54;;;;;;;8.40;3.58;;;17.30;72.40;;;;;;5033230;28;20025;-68
2023/10/06 08:19:20;;;;;;;11.13;4.00;;;17.30;72.20;;;;;;5033378;28;20116;-68
2023/10/06 08:21:46;;;;;;;10.75;3.97;;;17.40;72.00;;;;;;5033084;28;20064;-68
2023/10/06 08:24:12;;;;;;;8.43;3.53;;;17.50;71.70;;;;;;5033938;28;20087;-68
2023/10/06 08:26:39;;;;;;;9.68;3.20;;;17.60;71.50;;;;;;5033949;28;20116;-68
2023/10/06 08:29:05;;;;;;;7.05;3.42;;;17.70;71.40;;;;;;5033139;28;20041;-68
2023/10/06 08:31:31;;;;;;;9.27;3.58;;;17.80;71.20;;;;;;5033035;28;20355;-68
2023/10/06 08:33:58;;;;;;;7.95;3.65;;;17.90;71.10;;;;;;5032997;28;20144;-68
2023/10/06 08:36:24;;;;;;;11.25;3.22;;;18.10;70.90;;;;;;5034514;28;20053;-68
2023/10/06 08:38:51;;;;;;;12.40;3.70;;;18.10;70.70;;;;;;5033041;28;20060;-68
2023/10/06 08:41:26;;;;;;;7.55;3.22;;;18.30;70.50;;;;;;5033886;28;20033;-68
2023/10/06 08:43:53;;;;;;;10.55;3.70;;;18.40;70.20;;;;;;5033103;28;20029;-68
2023/10/06 08:46:19;;;;;;;8.38;3.97;;;18.50;70.10;;;;;;5033929;28;20037;-67
2023/10/06 08:48:46;;;;;;;8.88;3.30;;;18.50;70.00;;;;;;5015704;28;20068;-68
2023/10/06 08:51:14;;;;;;;11.02;3.78;;;18.50;70.00;;;;;;5032849;28;20056;-68
2023/10/06 08:53:44;;;;;;;8.27;3.30;;;18.50;70.20;;;;;;5026206;28;20034;-68
2023/10/06 08:56:14;;;;;;;7.43;3.42;;;18.50;70.20;;;;;;5034546;28;20029;-68
2023/10/06 08:58:41;;;;;;;9.75;3.30;;;18.70;70.00;;;;;;5049366;28;20026;-68
2023/10/06 09:01:10;;;;;;;8.98;3.03;;;18.80;69.80;;;;;;5032412;28;20098;-68
2023/10/06 09:03:38;;;;;;;10.93;4.07;;;18.90;69.50;;;;;;5036783;28;20065;-68
2023/10/06 09:06:06;;;;;;;9.40;3.50;;;19.10;69.40;;;;;;5037362;28;20045;-68
2023/10/06 09:08:44;;;;;;;9.40;3.72;;;19.10;69.40;;;;;;5036187;28;20041;-68
2023/10/06 09:11:10;;;;;;;9.25;3.35;;;19.00;69.40;;;;;;5037352;28;20017;-68
2023/10/06 09:13:39;;;;;;;10.60;3.88;;;19.00;69.70;;;;;;5036353;28;20377;-68
2023/10/06 09:16:10;;;;;;;11.10;3.33;;;19.00;70.40;;;;;;5037150;28;20026;-68
2023/10/06 09:18:38;;;;;;;9.85;3.03;;;19.10;69.70;;;;;;5036479;28;20450;-68
2023/10/06 09:21:19;;;;;;;8.18;3.65;;;19.10;69.70;;;;;;5036209;28;20038;-68
2023/10/06 09:23:46;;;;;;;8.68;3.20;;;19.10;69.80;;;;;;5053047;28;20029;-68
2023/10/06 09:26:15;;;;;;;7.50;3.60;;;19.10;69.80;;;;;;5052099;28;20057;-68
2023/10/06 09:28:52;;;;;;;8.10;3.35;;;19.20;69.90;;;;;;5031138;28;20029;-68
2023/10/06 09:31:34;;;;;;;8.05;3.55;;;19.20;69.80;;;;;;5036602;28;20058;-68
2023/10/06 09:34:00;;;;;;;7.85;3.58;;;19.20;69.70;;;;;;5036936;28;20026;-68
2023/10/06 09:36:33;;;;;;;12.40;4.00;;;19.20;69.80;;;;;;5035955;28;20040;-68
2023/10/06 09:39:03;;;;;;;8.55;3.20;;;19.20;69.90;;;;;;5035960;28;20422;-68
2023/10/06 09:41:32;;;;;;;7.40;3.07;;;19.10;70.00;;;;;;5036818;28;20051;-68
2023/10/06 09:44:07;;;;;;;9.35;3.55;;;19.10;70.20;;;;;;5035873;28;20040;-68
2023/10/06 09:46:36;;;;;;;9.43;3.63;;;19.00;70.30;;;;;;5036868;28;20325;-68
2023/10/06 09:49:05;;;;;;;9.77;3.47;;;18.90;70.40;;;;;;5018631;28;20029;-68
2023/10/06 09:51:33;;;;;;;8.73;3.65;;;18.90;70.60;;;;;;5036920;28;20104;-68
2023/10/06 09:54:00;;;;;;;10.25;3.97;;;18.90;70.70;;;;;;5035598;28;20032;-68
2023/10/06 09:56:27;;;;;;;9.60;3.53;;;18.90;70.80;;;;;;5052273;28;20064;-68
2023/10/06 09:58:54;;;;;;;11.00;3.72;;;18.90;70.80;;;;;;5033736;28;20069;-68
2023/10/06 10:01:24;;;;;;;8.40;3.38;;;19.00;70.70;;;;;;5036636;28;20040;-68
2023/10/06 10:03:52;;;;;;;11.82;4.20;;;19.00;70.60;;;;;;5036016;28;20072;-68
2023/10/06 10:06:21;;;;;;;11.90;3.53;;;19.10;70.60;;;;;;5051753;28;20095;-68
2023/10/06 10:08:47;;;;;;;7.05;3.15;;;19.20;70.40;;;;;;5035136;28;20095;-68
2023/10/06 10:11:31;;;;;;;8.45;3.38;;;19.40;70.20;;;;;;5034043;28;20063;-68
2023/10/06 10:14:26;;;;;;;10.57;3.47;;;19.60;69.80;;;;;;5026573;28;20331;-68
2023/10/06 10:17:29;;;;;;;8.05;3.58;;;19.80;69.30;;;;;;5024222;28;20099;-68
2023/10/06 10:19:55;;;;;;;10.05;3.30;;;19.80;69.40;;;;;;5032995;28;20497;-68
2023/10/06 10:22:21;;;;;;;10.55;3.60;;;19.80;69.30;;;;;;5035836;28;20029;-68
2023/10/06 10:24:47;;;;;;;9.88;3.50;;;20.00;69.10;;;;;;5034666;28;20029;-68
2023/10/06 10:27:16;;;;;;;9.30;3.50;;;20.10;68.70;;;;;;5030175;28;20049;-68
2023/10/06 10:29:42;;;;;;;9.30;3.33;;;20.20;68.40;;;;;;5050315;28;20040;-69
2023/10/06 10:32:14;;;;;;;12.20;3.30;;;20.30;68.10;;;;;;5033947;28;20439;-68
2023/10/06 10:35:06;;;;;;;8.55;3.45;;;20.40;67.70;;;;;;5035507;28;20029;-68
2023/10/06 10:37:32;;;;;;;7.90;2.83;;;20.40;67.60;;;;;;5049240;28;20029;-68
2023/10/06 10:39:59;;;;;;;9.18;3.38;;;20.50;67.70;;;;;;5050482;28;20490;-68
2023/10/06 10:42:39;;;;;;;7.90;3.65;;;20.70;67.50;;;;;;5044145;28;20030;-68
2023/10/06 10:45:38;;;;;;;6.55;3.03;;;20.80;66.90;;;;;;5045699;28;20378;-68
2023/10/06 10:48:14;;;;;;;7.07;3.03;;;21.00;66.40;;;;;;5035833;28;20458;-67
2023/10/06 10:51:05;;;;;;;9.50;3.40;;;21.10;66.30;;;;;;5034022;28;20040;-68
2023/10/06 10:53:37;;;;;;;9.07;3.60;;;21.10;66.20;;;;;;5029150;28;20036;-68
2023/10/06 10:56:03;;;;;;;8.68;3.25;;;20.90;66.50;;;;;;5030403;28;20037;-67
2023/10/06 10:58:44;;;;;;;11.43;3.45;;;20.70;66.70;;;;;;5032078;28;20108;-67
2023/10/06 11:01:23;;;;;;;9.90;3.25;;;20.60;66.90;;;;;;5032264;28;20159;-68
2023/10/06 11:04:30;;;;;;;8.43;3.13;;;20.40;67.30;;;;;;5036434;28;20039;-68
2023/10/06 11:07:07;;;;;;;7.13;2.95;;;20.30;67.50;;;;;;5030190;28;20061;-68
2023/10/06 11:09:37;;;;;;;10.63;3.35;;;20.20;67.70;;;;;;5031788;28;20029;-68
2023/10/06 11:12:17;;;;;;;8.55;3.67;;;20.10;67.90;;;;;;5030318;28;20390;-67
2023/10/06 11:14:43;;;;;;;9.38;3.60;;;20.00;68.00;;;;;;5033063;28;20033;-67
2023/10/06 11:17:11;;;;;;;7.28;3.30;;;20.00;68.00;;;;;;5026325;28;20451;-67
2023/10/06 11:19:39;;;;;;;9.32;3.55;;;19.90;67.90;;;;;;5042913;28;20029;-68
2023/10/06 11:22:13;;;;;;;9.13;3.45;;;19.90;68.00;;;;;;5011827;28;20132;-68
2023/10/06 11:24:40;;;;;;;7.95;3.30;;;19.90;67.90;;;;;;5029990;28;20040;-68
2023/10/06 11:27:22;;;;;;;9.23;3.10;;;19.90;67.90;;;;;;5042498;28;20055;-68
2023/10/06 11:29:52;;;;;;;10.77;3.50;;;20.00;67.80;;;;;;5037723;28;20037;-69
2023/10/06 11:32:19;;;;;;;10.40;3.50;;;20.00;67.80;;;;;;5032542;28;20026;-69
2023/10/06 11:34:46;;;;;;;9.25;3.10;;;20.00;67.70;;;;;;5043846;28;20025;-68
2023/10/06 11:37:12;;;;;;;8.02;3.10;;;20.10;67.90;;;;;;5029159;28;20029;-68
2023/10/06 11:39:39;;;;;;;8.70;3.20;;;20.10;67.80;;;;;;5029357;28;20025;-68
2023/10/06 11:42:23;;;;;;;8.48;3.17;;;20.10;67.70;;;;;;5028939;28;20029;-69
2023/10/06 11:44:52;;;;;;;12.20;3.95;;;20.10;67.60;;;;;;5029320;28;20053;-69
2023/10/06 11:47:27;;;;;;;9.93;3.10;;;20.20;67.50;;;;;;5029514;28;20584;-69
2023/10/06 11:50:01;;;;;;;7.43;3.17;;;20.10;67.40;;;;;;5023855;28;20029;-68
2023/10/06 11:52:27;;;;;;;7.60;3.10;;;20.10;67.60;;;;;;5026479;28;20022;-69
2023/10/06 11:54:54;;;;;;;8.35;3.65;;;20.10;67.70;;;;;;5043567;28;20028;-69
2023/10/06 11:57:47;;;;;;;8.00;3.22;;;20.20;67.60;;;;;;5029021;28;20358;-68
2023/10/06 12:00:17;;;;;;;11.25;3.35;;;20.20;67.40;;;;;;5044800;28;20031;-69
2023/10/06 12:02:53;;;;;;;9.13;3.23;;;20.30;67.40;;;;;;5028514;28;20032;-69
2023/10/06 12:05:22;;;;;;;8.73;3.60;;;20.30;67.30;;;;;;5027796;28;20466;-69
2023/10/06 12:07:52;;;;;;;9.27;3.45;;;20.30;67.30;;;;;;5029073;28;20104;-69
2023/10/06 12:10:20;;;;;;;9.95;3.40;;;20.40;67.40;;;;;;5027185;28;20147;-69
2023/10/06 12:12:50;;;;;;;7.47;3.00;;;20.50;67.30;;;;;;5027535;28;20036;-69
2023/10/06 12:15:16;;;;;;;7.45;3.17;;;20.60;67.30;;;;;;5028559;28;20033;-69
2023/10/06 12:17:43;;;;;;;8.57;3.38;;;20.70;67.10;;;;;;5030086;28;20091;-68
2023/10/06 12:20:16;;;;;;;8.88;3.20;;;20.70;67.00;;;;;;5027968;28;20660;-68
2023/10/06 12:22:46;;;;;;;8.93;3.67;;;20.70;67.00;;;;;;5026734;28;20390;-68
2023/10/06 12:25:14;;;;;;;8.95;3.58;;;20.80;67.10;;;;;;5043229;28;20034;-69
2023/10/06 12:27:43;;;;;;;7.65;3.42;;;20.80;67.00;;;;;;5028464;28;20462;-68
2023/10/06 12:30:13;;;;;;;9.38;3.67;;;20.80;67.00;;;;;;5043495;28;20055;-69
2023/10/06 12:32:41;;;;;;;11.30;3.85;;;20.70;67.10;;;;;;5031430;28;20033;-68
2023/10/06 12:35:08;;;;;;;8.73;3.17;;;20.80;67.20;;;;;;5045200;28;20416;-68
2023/10/06 12:37:40;;;;;;;9.77;3.63;;;20.70;67.30;;;;;;5031480;28;20116;-69
2023/10/06 12:40:11;;;;;;;10.77;3.47;;;20.70;67.40;;;;;;5047045;28;20039;-69
2023/10/06 12:42:38;;;;;;;7.85;3.22;;;20.60;67.50;;;;;;5032337;28;20128;-69
2023/10/06 12:45:08;;;;;;;8.27;3.28;;;20.70;67.50;;;;;;5033295;28;20033;-68
2023/10/06 12:47:34;;;;;;;11.73;3.72;;;20.60;67.40;;;;;;5032866;28;20112;-69
2023/10/06 12:50:05;;;;;;;9.70;3.53;;;20.60;67.50;;;;;;5031803;28;20041;-68
2023/10/06 12:52:39;;;;;;;8.80;3.35;;;20.50;67.50;;;;;;5031397;28;20021;-68
2023/10/06 12:55:10;;;;;;;8.93;3.58;;;20.50;67.60;;;;;;5032207;28;20324;-68
2023/10/06 12:57:42;;;;;;;7.80;3.80;;;20.50;67.60;;;;;;5030224;28;20026;-69
2023/10/06 13:00:09;;;;;;;8.02;3.58;;;20.50;67.60;;;;;;5035235;28;20037;-69
2023/10/06 13:02:35;;;;;;;12.30;4.07;;;20.50;67.70;;;;;;5033034;28;20068;-69
2023/10/06 13:05:35;;;;;;;10.18;3.78;;;20.50;67.70;;;;;;5034277;28;20053;-68
2023/10/06 13:07:57;;;;;;;8.55;3.70;;;20.40;67.70;;;;;;5038413;28;20121;-68
2023/10/06 13:10:24;;;;;;;9.65;3.60;;;20.40;67.60;;;;;;5031796;28;20036;-68